Flight Track Log - Related Links

Times and Time Zones

All times are in EDT time to prevent confusion due to time zone crossing. See the N45DJ flight status page for this flight to view local times or setup timezone preferences in your user account.

Time Position Orientation Groundspeed Altitude Reporting Facility
EDT Latitude Longitude Course Direction KTS MPH feet Rate Location/Type
Wed 11:18:11 AM 34.5417 -86.7833 73° East 158 182 6,400  Level Memphis Center
Wed 11:19:13 AM 34.5383 -86.8411 266° West 167 192 8,500 1,694 Climbing Memphis Center
Wed 11:20:15 AM 34.5389 -86.9033 271° West 177 204 9,900 1,597 Climbing Memphis Center
Wed 11:21:17 AM 34.5389 -86.9806 270° West 222 255 11,800 2,032 Climbing Memphis Center
Wed 11:22:19 AM 34.5450 -87.0383 277° West 186 214 14,100 2,112 Climbing Memphis Center
Wed 11:23:22 AM 34.5475 -87.0989 273° West 156 180 16,200 1,728 Climbing Memphis Center
Wed 11:24:00 AM 34.8041 -86.1145 74° East  Level FlightAware Approximate
Wed 11:24:24 AM 34.5481 -87.1486 271° West 153 176 17,700  Level Memphis Center
Wed 11:25:00 AM 34.6596 -86.7055 69° East  Level FlightAware Approximate
Wed 11:25:26 AM 34.5517 -87.1997 275° West 151 174 19,100  Level Memphis Center
Wed 11:26:00 AM 34.6802 -86.6291 73° East  Level FlightAware Approximate
Wed 11:26:28 AM 34.6050 -87.2008 359° North 209 241 20,000  Level Memphis Center
Wed 11:27:30 AM 34.6325 -87.1211 67° East 266 306 20,000  Level Memphis Center
Wed 11:28:32 AM 34.6367 -87.0222 87° East 288 331 20,000  Level Memphis Center
Wed 11:30:36 AM 34.6181 -86.8100 96° East 303 349 20,000  Level Memphis Center
Wed 11:31:38 AM 34.5686 -86.8450 210° Southwest 254 292 20,000  Level Memphis Center
Wed 11:32:40 AM 34.5667 -86.9361 269° West 267 307 20,000  Level Memphis Center
Wed 11:33:42 AM 34.5633 -87.0331 268° West 282 325 20,000  Level Memphis Center
Wed 11:34:45 AM 34.5586 -87.1514 267° West 290 334 20,000  Level Memphis Center
Wed 11:35:47 AM 34.5992 -87.2111 310° West 275 316 20,000  Level Memphis Center
Wed 11:36:49 AM 34.6378 -87.1403 56° Northeast 273 314 20,000  Level Memphis Center
Wed 11:37:51 AM 34.6347 -87.0417 92° East 287 330 20,000  Level Memphis Center
Wed 11:38:53 AM 34.6361 -86.9386 89° East 299 344 20,000  Level Memphis Center
Wed 11:39:55 AM 34.6356 -86.8381 90° East 300 345 20,000  Level Memphis Center
Wed 11:40:57 AM 34.5653 -86.8178 167° South 285 328 20,000  Level Memphis Center
Wed 11:41:59 AM 34.5564 -86.9122 264° West 287 330 20,000  Level Memphis Center
Wed 11:43:01 AM 34.5536 -87.0119 268° West 290 334 20,000  Level Memphis Center
Wed 11:44:03 AM 34.5497 -87.1119 267° West 295 339 20,000  Level Memphis Center
Wed 11:45:05 AM 34.5714 -87.2022 286° West 308 354 20,000  Level Memphis Center
Wed 11:46:08 AM 34.6450 -87.1722 19° North 312 359 20,000  Level Memphis Center
Wed 11:47:10 AM 34.6400 -87.0589 93° East 286 329 20,000  Level Memphis Center
Wed 11:48:12 AM 34.6358 -86.9569 93° East 300 345 20,000  Level Memphis Center
Wed 11:49:14 AM 34.6358 -86.8550 90° East 305 351 20,000  Level Memphis Center
Wed 11:50:16 AM 34.5842 -86.8053 142° Southeast 285 328 20,000  Level Memphis Center
Wed 11:51:18 AM 34.5583 -86.8889 249° West 283 326 20,000  Level Memphis Center
Wed 11:52:20 AM 34.5564 -86.9878 269° West 292 336 20,000  Level Memphis Center
Wed 11:53:22 AM 34.5506 -87.1072 267° West 294 338 20,000 -48 Level Memphis Center
Wed 11:54:24 AM 34.5525 -87.2075 271° West 305 351 19,900  Descending Memphis Center
Wed 11:55:26 AM 34.6203 -87.2106 358° North 283 326 20,000 48 Climbing Memphis Center
Wed 11:56:28 AM 34.6397 -87.1183 76° East 287 330 20,000  Level Memphis Center
Wed 11:57:31 AM 34.6372 -87.0172 92° East 297 342 20,000  Level Memphis Center
Wed 11:58:33 AM 34.6361 -86.8942 91° East 299 344 20,000  Level Memphis Center
Wed 11:59:35 AM 34.6122 -86.8050 108° East 315 362 20,000  Level Memphis Center
Wed 12:00:39 PM 34.5583 -86.8497 214° Southwest 289 333 20,000  Level Memphis Center
Wed 12:01:41 PM 34.5536 -86.9472 267° West 288 331 20,000  Level Memphis Center
Wed 12:02:43 PM 34.5494 -87.0475 267° West 295 339 20,000  Level Memphis Center
Wed 12:03:45 PM 34.5433 -87.1681 267° West 297 342 20,000  Level Memphis Center
Wed 12:04:48 PM 34.5953 -87.2297 316° Northwest 301 346 20,000  Level Memphis Center
Wed 12:05:50 PM 34.6422 -87.1536 53° Northeast 306 352 20,000  Level Memphis Center
Wed 12:06:52 PM 34.6364 -87.0539 94° East 299 344 20,000  Level Memphis Center
Wed 12:07:54 PM 34.6361 -86.9519 90° East 299 344 20,000  Level Memphis Center
Wed 12:08:56 PM 34.6358 -86.8506 90° East 300 345 20,000  Level Memphis Center
Wed 12:09:58 PM 34.5658 -86.8208 161° South 290 334 20,000  Level Memphis Center
Wed 12:11:00 PM 34.5539 -86.9164 261° West 291 335 20,000  Level Memphis Center
Wed 12:12:02 PM 34.5506 -87.0172 268° West 294 338 20,000  Level Memphis Center
Wed 12:13:04 PM 34.5458 -87.1178 267° West 297 342 20,000 -48 Level Memphis Center
Wed 12:14:06 PM 34.5650 -87.2097 284° West 304 350 19,900  Descending Memphis Center
Wed 12:15:08 PM 34.6403 -87.1583 29° Northeast 304 350 20,000 48 Climbing Memphis Center
Wed 12:16:11 PM 34.6394 -87.0583 91° East 300 345 20,000  Level Memphis Center
Wed 12:17:13 PM 34.6356 -86.9567 93° East 300 345 20,000  Level Memphis Center
Wed 12:18:15 PM 34.6358 -86.8544 90° East 300 345 20,000  Level Memphis Center
Wed 12:19:17 PM 34.5825 -86.8050 143° Southeast 296 341 20,000  Level Memphis Center
Wed 12:20:19 PM 34.5558 -86.8889 249° West 293 337 20,000  Level Memphis Center
Wed 12:21:21 PM 34.5508 -87.0078 267° West 294 338 20,000  Level Memphis Center
Wed 12:22:23 PM 34.5458 -87.1092 267° West 295 339 20,000 -48 Level Memphis Center
Wed 12:23:25 PM 34.5536 -87.2081 275° West 303 349 19,900  Descending Memphis Center
Wed 12:24:27 PM 34.6269 -87.2003 North 302 348 20,000 48 Climbing Memphis Center
Wed 12:25:29 PM 34.6394 -87.1022 81° East 296 341 20,000  Level Memphis Center
Wed 12:26:31 PM 34.6372 -86.9997 91° East 299 344 20,000  Level Memphis Center
Wed 12:27:33 PM 34.6358 -86.8781 91° East 299 344 20,000  Level Memphis Center
Wed 12:28:36 PM 34.5936 -86.8117 128° Southeast 295 339 20,000  Level Memphis Center
Wed 12:29:38 PM 34.5583 -86.8867 240° Southwest 288 331 20,000  Level Memphis Center
Wed 12:30:40 PM 34.5542 -86.9867 267° West 292 336 20,000  Level Memphis Center
Wed 12:31:42 PM 34.5489 -87.0867 266° West 296 341 20,000  Level Memphis Center
Wed 12:32:44 PM 34.5464 -87.1875 268° West 297 342 20,000  Level Memphis Center
Wed 12:33:46 PM 34.6336 -87.2058 350° North 321 369 20,000  Level Memphis Center
Wed 12:34:48 PM 34.6403 -87.1100 85° East 297 342 20,000  Level Memphis Center
Wed 12:35:50 PM 34.6358 -87.0078 93° East 303 349 20,000  Level Memphis Center
Wed 12:36:52 PM 34.6364 -86.9022 90° East 308 354 20,000  Level Memphis Center
Wed 12:37:54 PM 34.6194 -86.8078 102° East 308 354 20,000  Level Memphis Center
Wed 12:38:56 PM 34.5583 -86.8344 200° South 290 334 20,000  Level Memphis Center
Wed 12:39:59 PM 34.5519 -86.9522 266° West 290 334 20,000  Level Memphis Center
Wed 12:41:01 PM 34.5472 -87.0536 267° West 296 341 20,000  Level Memphis Center
Wed 12:42:03 PM 34.5428 -87.1553 267° West 300 345 20,000  Level Memphis Center
Wed 12:43:05 PM 34.5878 -87.2203 310° West 302 348 20,000  Level Memphis Center
Wed 12:44:07 PM 34.6375 -87.1503 49° Northeast 293 337 20,000  Level Memphis Center
Wed 12:45:09 PM 34.6369 -87.0281 90° East 302 348 20,000  Level Memphis Center
Wed 12:46:11 PM 34.6361 -86.9261 91° East 302 348 20,000  Level Memphis Center
Wed 12:47:13 PM 34.6347 -86.8269 91° East 300 345 20,000  Level Memphis Center
Wed 12:48:15 PM 34.5767 -86.8081 165° South 275 316 20,000  Level Memphis Center
Wed 12:49:17 PM 34.5983 -86.8850 289° West 289 333 20,000  Level Memphis Center
Wed 12:50:19 PM 34.6794 -86.8478 21° North 329 379 20,000  Level Memphis Center
Wed 12:51:21 PM 34.7131 -86.7158 73° East 338 389 20,000  Level Memphis Center
Wed 12:52:24 PM 34.7372 -86.6019 75° East 345 397 20,000  Level Memphis Center
Wed 12:53:26 PM 34.7683 -86.4911 71° East 346 398 20,000  Level Memphis Center
Wed 12:54:28 PM 34.7894 -86.3761 77° East 351 404 20,000 -903 Level Memphis Center
Wed 12:56:32 PM 34.8408 -86.1322 76° East 364 419 17,200 -2,161 Descending Memphis Center
Wed 12:57:34 PM 34.8675 -86.0061 76° East 380 437 13,300 -3,000 Descending Memphis Center
Wed 12:58:36 PM 34.8931 -85.8892 75° East 364 419 11,000 -1,113 Descending Memphis Center
Wed 12:59:38 PM 34.9219 -85.7492 76° East 357 411 11,000 -677 Level Memphis Center
Wed 01:00:40 PM 34.9689 -85.6489 60° Northeast 344 396 9,600 -1,296 Descending Memphis Center
Wed 01:01:43 PM 35.0086 -85.5558 62° Northeast 320 368 8,300 -1,296 Descending Memphis Center
Wed 01:02:45 PM 35.0478 -85.4692 61° Northeast 299 344 6,900 -1,839 Descending Memphis Center
Wed 01:03:47 PM 35.0897 -85.3817 60° Northeast 298 343 4,500 -1,597 Descending Memphis Center
Wed 01:04:49 PM 35.1431 -85.3161 45° Northeast 285 328 3,600 -435 Descending Memphis Center
Wed 01:05:51 PM 35.2017 -85.2461 44° Northeast 258 297 3,600  Level Memphis Center
Wed 01:06:53 PM 35.2028 -85.1708 89° East 238 274 3,600 -145 Level Memphis Center
Wed 01:07:55 PM 35.1517 -85.1631 173° South 215 247 3,300 -823 Descending Memphis Center
Wed 01:08:57 PM 35.1014 -85.1797 195° South 197 227 1,900 -1,355 Descending Memphis Center

Login

Don't have an account? Register now (free) for customized features, flight alerts, and more!